createdAt,value
2022-10-15T00:04:39.215Z,12.37
2022-10-15T00:09:44.269Z,12.40
2022-10-15T00:14:48.009Z,12.44
2022-10-15T00:19:51.758Z,12.43
2022-10-15T00:24:56.809Z,12.48
2022-10-15T00:30:03.154Z,12.50
2022-10-15T00:35:07.412Z,12.48
2022-10-15T00:40:15.039Z,12.51
2022-10-15T00:45:18.874Z,12.47
2022-10-15T00:50:25.752Z,12.45
2022-10-15T00:55:33.951Z,12.51
2022-10-15T01:00:38.164Z,12.57
2022-10-15T01:05:42.625Z,12.54
2022-10-15T01:10:55.132Z,12.56
2022-10-15T01:16:03.314Z,12.59
2022-10-15T01:21:16.426Z,12.57
2022-10-15T01:26:54.752Z,12.56
2022-10-15T01:32:04.885Z,12.59
2022-10-15T01:37:12.710Z,12.58
2022-10-15T01:42:24.586Z,12.61
2022-10-15T01:47:35.337Z,12.56
2022-10-15T01:52:41.605Z,12.62
2022-10-15T01:57:47.236Z,12.65
2022-10-15T02:02:53.247Z,12.64
2022-10-15T02:08:03.465Z,12.67
2022-10-15T02:13:19.865Z,12.68
2022-10-15T02:18:32.442Z,12.66
2022-10-15T02:23:42.336Z,12.66
2022-10-15T02:28:52.136Z,12.69
2022-10-15T02:34:02.208Z,12.64
2022-10-15T02:39:08.097Z,12.61
2022-10-15T02:44:11.880Z,12.60
2022-10-15T02:49:16.937Z,12.56
2022-10-15T02:54:21.040Z,12.56
2022-10-15T02:59:24.818Z,12.52
2022-10-15T03:04:30.128Z,12.49
2022-10-15T03:09:35.128Z,12.48
2022-10-15T03:14:39.883Z,12.42
2022-10-15T03:19:45.442Z,12.36
2022-10-15T03:24:49.203Z,12.33
2022-10-15T03:29:55.624Z,12.27
2022-10-15T03:35:01.179Z,12.23
2022-10-15T03:40:10.545Z,12.18
2022-10-15T03:45:18.975Z,12.15
2022-10-15T03:50:26.284Z,12.11
2022-10-15T03:55:29.987Z,12.06
2022-10-15T04:00:33.790Z,12.11
2022-10-15T04:05:39.538Z,12.12
2022-10-15T04:10:43.728Z,12.14
2022-10-15T04:15:47.455Z,12.19
2022-10-15T04:20:52.707Z,12.23
2022-10-15T04:25:59.929Z,12.29
2022-10-15T04:31:04.096Z,12.33
2022-10-15T04:36:14.076Z,12.37
2022-10-15T04:41:19.362Z,12.43
2022-10-15T04:46:23.843Z,12.47
2022-10-15T04:51:29.227Z,12.55
2022-10-15T04:56:35.105Z,12.53
2022-10-15T05:01:39.081Z,12.56
2022-10-15T05:06:44.853Z,12.61
2022-10-15T05:11:52.955Z,12.60
2022-10-15T05:16:56.741Z,12.67
2022-10-15T05:22:02.009Z,12.61
2022-10-15T05:27:07.679Z,12.64
2022-10-15T05:32:12.692Z,12.61
2022-10-15T05:37:18.326Z,12.49
2022-10-15T05:42:22.670Z,12.52
2022-10-15T05:47:27.135Z,12.53
2022-10-15T05:52:34.311Z,12.66
2022-10-15T05:57:38.529Z,12.67
2022-10-15T06:02:42.504Z,12.70
2022-10-15T06:07:47.624Z,12.70
2022-10-15T06:12:51.794Z,12.72
2022-10-15T06:17:55.485Z,12.80
2022-10-15T06:23:00.841Z,12.79
2022-10-15T06:28:05.379Z,12.82
2022-10-15T06:33:12.843Z,12.83
2022-10-15T06:38:18.225Z,12.80
2022-10-15T06:43:21.896Z,12.89
2022-10-15T06:48:25.718Z,12.90
2022-10-15T06:53:32.256Z,12.93
2022-10-15T06:58:36.112Z,12.90
2022-10-15T07:03:40.000Z,12.96
2022-10-15T07:08:45.927Z,12.94
2022-10-15T07:13:49.860Z,13.03
2022-10-15T07:18:53.566Z,13.15
2022-10-15T07:23:59.384Z,13.20
2022-10-15T07:29:04.638Z,13.20
2022-10-15T07:34:08.448Z,13.26
2022-10-15T07:39:13.744Z,13.29
2022-10-15T07:44:17.500Z,13.33
2022-10-15T07:49:21.251Z,13.37
2022-10-15T07:54:26.549Z,13.49
2022-10-15T07:59:30.273Z,13.58
2022-10-15T08:04:35.109Z,13.60
2022-10-15T08:09:40.399Z,13.65
2022-10-15T08:14:44.231Z,13.74
2022-10-15T08:19:47.943Z,13.75
2022-10-15T08:24:53.157Z,13.93
2022-10-15T08:29:56.954Z,13.99
2022-10-15T08:35:00.621Z,14.12
2022-10-15T08:40:08.044Z,14.19
2022-10-15T08:45:15.309Z,14.27
2022-10-15T08:50:28.875Z,14.28
2022-10-15T08:55:40.022Z,14.40
2022-10-15T09:00:48.373Z,14.36
2022-10-15T09:05:54.142Z,14.45
2022-10-15T09:11:04.147Z,14.31
2022-10-15T09:16:15.573Z,14.29
2022-10-15T09:21:20.125Z,14.31
2022-10-15T09:26:30.669Z,14.33
2022-10-15T09:31:45.515Z,14.33
2022-10-15T09:36:55.930Z,14.41
2022-10-15T09:42:12.133Z,14.28
2022-10-15T09:47:18.609Z,14.15
2022-10-15T09:52:36.973Z,14.21
2022-10-15T09:57:48.349Z,14.26
2022-10-15T10:03:07.097Z,14.25
2022-10-15T10:08:18.972Z,14.29
2022-10-15T10:13:27.260Z,14.39
2022-10-15T10:18:32.191Z,14.37
2022-10-15T10:23:37.528Z,14.38
2022-10-15T10:28:48.118Z,14.41
2022-10-15T10:33:52.354Z,14.48
2022-10-15T10:38:59.388Z,14.56
2022-10-15T10:44:04.423Z,14.69
2022-10-15T10:49:10.016Z,14.72
2022-10-15T10:54:15.089Z,14.78
2022-10-15T10:59:24.811Z,14.88
2022-10-15T11:04:32.573Z,14.89
2022-10-15T11:09:47.904Z,14.98
2022-10-15T11:14:59.640Z,15.07
2022-10-15T11:20:38.994Z,15.15
2022-10-15T11:25:47.788Z,15.20
2022-10-15T11:31:00.851Z,15.31
2022-10-15T11:36:18.652Z,15.44
2022-10-15T11:41:36.652Z,15.48
2022-10-15T11:46:48.390Z,15.54
2022-10-15T11:52:07.111Z,15.55
2022-10-15T11:57:15.080Z,15.58
2022-10-15T12:02:24.077Z,15.60
2022-10-15T12:07:32.048Z,15.67
2022-10-15T12:12:42.033Z,15.80
2022-10-15T12:17:55.568Z,16.15
2022-10-15T12:23:00.970Z,17.25
2022-10-15T12:28:06.950Z,18.06
2022-10-15T12:33:27.085Z,17.96
2022-10-15T12:38:32.964Z,18.20
2022-10-15T12:43:40.733Z,19.59
2022-10-15T12:48:47.323Z,20.09
2022-10-15T12:53:51.916Z,19.89
2022-10-15T12:58:56.715Z,19.14
2022-10-15T13:04:02.331Z,18.96
2022-10-15T13:09:25.708Z,18.46
2022-10-15T13:14:33.517Z,17.91
2022-10-15T13:19:41.919Z,17.71
2022-10-15T13:24:46.457Z,17.29
2022-10-15T13:29:56.730Z,18.11
2022-10-15T13:35:03.882Z,18.47
2022-10-15T13:40:09.501Z,20.64
2022-10-15T13:45:18.531Z,21.63
2022-10-15T13:50:26.315Z,22.76
2022-10-15T13:55:33.804Z,23.14
2022-10-15T14:00:38.209Z,21.88
2022-10-15T14:05:43.889Z,20.47
2022-10-15T14:10:48.194Z,19.79
2022-10-15T14:15:59.365Z,19.69
2022-10-15T14:21:11.105Z,19.60
2022-10-15T14:26:16.985Z,18.60
2022-10-15T14:31:39.282Z,18.65
2022-10-15T14:36:45.021Z,18.24
2022-10-15T14:41:56.823Z,18.71
2022-10-15T14:47:03.454Z,20.34
2022-10-15T14:52:14.941Z,21.28
2022-10-15T14:57:24.939Z,22.60
2022-10-15T15:02:30.167Z,22.10
2022-10-15T15:07:35.284Z,21.68
2022-10-15T15:12:40.427Z,21.32
2022-10-15T15:17:45.008Z,22.00
2022-10-15T15:22:52.263Z,22.15
2022-10-15T15:27:56.067Z,21.86
2022-10-15T15:33:00.591Z,20.87
2022-10-15T15:38:08.464Z,20.17
2022-10-15T15:43:15.217Z,19.91
2022-10-15T15:48:19.033Z,19.57
2022-10-15T15:53:24.062Z,19.17
2022-10-15T15:58:27.849Z,18.90
2022-10-15T16:03:31.745Z,18.69
2022-10-15T16:08:38.642Z,18.37
2022-10-15T16:13:43.110Z,18.22
2022-10-15T16:18:46.844Z,18.03
2022-10-15T16:23:52.185Z,17.82
2022-10-15T16:28:55.908Z,17.48
2022-10-15T16:33:59.742Z,17.41
2022-10-15T16:39:05.311Z,17.24
2022-10-15T16:44:09.243Z,17.03
2022-10-15T16:49:13.010Z,16.86
2022-10-15T16:54:18.087Z,16.63
2022-10-15T16:59:22.235Z,16.42
2022-10-15T17:04:26.133Z,16.26
2022-10-15T17:09:31.326Z,16.14
2022-10-15T17:14:35.060Z,16.01
2022-10-15T17:19:38.773Z,15.87
2022-10-15T17:24:43.855Z,15.75
2022-10-15T17:29:47.600Z,15.70
2022-10-15T17:34:51.314Z,15.64
2022-10-15T17:39:58.286Z,15.60
2022-10-15T17:45:02.196Z,15.49
2022-10-15T17:50:07.072Z,15.46
2022-10-15T17:55:12.314Z,15.42
2022-10-15T18:00:16.171Z,15.29
2022-10-15T18:05:19.888Z,15.30
2022-10-15T18:10:24.993Z,15.20
2022-10-15T18:15:28.838Z,15.12
2022-10-15T18:20:32.655Z,15.22
2022-10-15T18:25:38.386Z,15.06
2022-10-15T18:30:43.347Z,15.11
2022-10-15T18:35:47.804Z,15.09
2022-10-15T18:40:53.123Z,15.04
2022-10-15T18:46:02.701Z,15.02
2022-10-15T18:51:10.020Z,14.85
2022-10-15T18:56:15.326Z,14.77
2022-10-15T19:01:26.923Z,14.79
2022-10-15T19:06:34.267Z,14.72
2022-10-15T19:11:40.762Z,14.71
2022-10-15T19:16:45.234Z,14.72
2022-10-15T19:21:50.200Z,14.72
2022-10-15T19:26:55.260Z,14.72
2022-10-15T19:31:58.951Z,14.72
2022-10-15T19:37:03.085Z,14.69
2022-10-15T19:42:08.576Z,14.54
2022-10-15T19:47:14.247Z,14.42
2022-10-15T19:52:18.028Z,14.49
2022-10-15T19:57:24.904Z,14.43
2022-10-15T20:02:28.872Z,14.48
2022-10-15T20:07:32.590Z,14.45
2022-10-15T20:12:37.964Z,14.38
2022-10-15T20:17:41.749Z,14.33
2022-10-15T20:22:45.539Z,14.31
2022-10-15T20:27:50.576Z,14.31
2022-10-15T20:32:54.447Z,14.21
2022-10-15T20:37:58.251Z,14.17
2022-10-15T20:43:03.417Z,14.08
2022-10-15T20:48:09.501Z,14.05
2022-10-15T20:53:13.538Z,14.08
2022-10-15T20:58:18.703Z,13.89
2022-10-15T21:03:22.683Z,13.88
2022-10-15T21:08:27.358Z,13.91
2022-10-15T21:13:32.519Z,13.79
2022-10-15T21:18:37.017Z,13.77
2022-10-15T21:23:42.937Z,13.66
2022-10-15T21:28:48.020Z,13.66
2022-10-15T21:33:52.672Z,13.62
2022-10-15T21:39:00.878Z,13.53
2022-10-15T21:44:07.124Z,13.61
2022-10-15T21:49:11.030Z,13.61
2022-10-15T21:54:14.712Z,13.56
2022-10-15T21:59:19.748Z,13.57
2022-10-15T22:04:23.514Z,13.51
2022-10-15T22:09:27.244Z,13.50
2022-10-15T22:14:32.281Z,13.45
2022-10-15T22:19:35.963Z,13.39
2022-10-15T22:24:39.880Z,13.40
2022-10-15T22:29:45.190Z,13.32
2022-10-15T22:34:48.971Z,13.33
2022-10-15T22:39:52.650Z,13.24
2022-10-15T22:44:57.679Z,13.28
2022-10-15T22:55:07.395Z,13.17
2022-10-15T23:00:14.330Z,13.15
2022-10-15T23:05:18.318Z,13.10
2022-10-15T23:10:22.023Z,13.05
2022-10-15T23:15:27.136Z,12.96
2022-10-15T23:20:33.682Z,12.93
2022-10-15T23:25:40.367Z,12.91
2022-10-15T23:30:45.358Z,12.89
2022-10-15T23:35:58.003Z,12.89
2022-10-15T23:41:02.571Z,12.84
2022-10-15T23:46:08.045Z,12.79
2022-10-15T23:51:15.405Z,12.82
2022-10-15T23:56:19.411Z,12.83
